sensor_id;sensor_type;location;lat;lon;timestamp;pressure;altitude;pressure_sealevel;temperature;humidity
5691;BME280;2870;42.680;23.364;2022-12-29T00:01:23;96071.44;;;6.20;85.83
5691;BME280;2870;42.680;23.364;2022-12-29T00:03:50;96070.94;;;5.94;86.76
5691;BME280;2870;42.680;23.364;2022-12-29T00:06:17;96064.34;;;5.85;87.65
5691;BME280;2870;42.680;23.364;2022-12-29T00:08:44;96061.81;;;6.10;87.08
5691;BME280;2870;42.680;23.364;2022-12-29T00:11:12;96066.88;;;6.17;86.41
5691;BME280;2870;42.680;23.364;2022-12-29T00:13:40;96071.44;;;5.98;87.21
5691;BME280;2870;42.680;23.364;2022-12-29T00:16:25;96069.94;;;6.08;87.57
5691;BME280;2870;42.680;23.364;2022-12-29T00:18:52;96068.13;;;6.27;86.11
5691;BME280;2870;42.680;23.364;2022-12-29T00:21:22;96071.66;;;6.50;85.43
5691;BME280;2870;42.680;23.364;2022-12-29T00:24:09;96077.00;;;6.20;85.64
5691;BME280;2870;42.680;23.364;2022-12-29T00:26:58;96069.94;;;5.91;86.77
5691;BME280;2870;42.680;23.364;2022-12-29T00:29:53;96076.97;;;5.81;87.28
5691;BME280;2870;42.680;23.364;2022-12-29T00:32:37;96080.81;;;5.95;87.08
5691;BME280;2870;42.680;23.364;2022-12-29T00:35:25;96077.78;;;6.15;85.59
5691;BME280;2870;42.680;23.364;2022-12-29T00:37:54;96081.06;;;5.97;85.73
5691;BME280;2870;42.680;23.364;2022-12-29T00:40:40;96083.59;;;5.95;86.31
5691;BME280;2870;42.680;23.364;2022-12-29T00:43:24;96082.09;;;6.05;86.51
5691;BME280;2870;42.680;23.364;2022-12-29T00:46:09;96086.91;;;6.04;87.39
5691;BME280;2870;42.680;23.364;2022-12-29T00:48:36;96090.44;;;6.27;85.99
5691;BME280;2870;42.680;23.364;2022-12-29T00:51:20;96079.03;;;6.36;85.47
5691;BME280;2870;42.680;23.364;2022-12-29T00:53:47;96084.59;;;6.48;85.41
5691;BME280;2870;42.680;23.364;2022-12-29T00:56:13;96083.81;;;6.53;84.21
5691;BME280;2870;42.680;23.364;2022-12-29T00:58:40;96089.44;;;6.30;84.59
5691;BME280;2870;42.680;23.364;2022-12-29T01:01:08;96091.72;;;6.15;85.82
5691;BME280;2870;42.680;23.364;2022-12-29T01:03:37;96083.84;;;6.25;85.99
5691;BME280;2870;42.680;23.364;2022-12-29T01:06:07;96087.41;;;6.20;85.39
5691;BME280;2870;42.680;23.364;2022-12-29T01:08:34;96047.88;;;5.88;85.96
5691;BME280;2870;42.680;23.364;2022-12-29T01:11:03;96084.88;;;6.16;85.81
5691;BME280;2870;42.680;23.364;2022-12-29T01:13:30;96077.78;;;6.21;85.68
5691;BME280;2870;42.680;23.364;2022-12-29T01:15:57;96076.50;;;6.10;85.82
5691;BME280;2870;42.680;23.364;2022-12-29T01:18:25;96077.78;;;6.09;86.38
5691;BME280;2870;42.680;23.364;2022-12-29T01:20:59;96070.69;;;6.31;86.07
5691;BME280;2870;42.680;23.364;2022-12-29T01:23:26;96078.00;;;6.28;85.58
5691;BME280;2870;42.680;23.364;2022-12-29T01:25:53;96072.97;;;6.10;85.82
5691;BME280;2870;42.680;23.364;2022-12-29T01:28:20;96069.19;;;6.19;85.19
5691;BME280;2870;42.680;23.364;2022-12-29T01:30:47;96068.66;;;6.26;84.47
5691;BME280;2870;42.680;23.364;2022-12-29T01:33:14;96071.22;;;6.07;85.31
5691;BME280;2870;42.680;23.364;2022-12-29T01:35:40;96068.91;;;6.11;86.02
5691;BME280;2870;42.680;23.364;2022-12-29T01:38:08;96065.59;;;6.35;85.15
5691;BME280;2870;42.680;23.364;2022-12-29T01:40:43;96056.00;;;6.30;84.58
5691;BME280;2870;42.680;23.364;2022-12-29T01:43:13;96061.28;;;6.40;83.77
5691;BME280;2870;42.680;23.364;2022-12-29T01:45:44;96056.00;;;6.30;84.48
5691;BME280;2870;42.680;23.364;2022-12-29T01:48:13;96056.50;;;6.01;85.46
5691;BME280;2870;42.680;23.364;2022-12-29T01:50:43;96051.69;;;5.73;85.82
5691;BME280;2870;42.680;23.364;2022-12-29T01:53:18;96048.09;;;5.67;85.49
5691;BME280;2870;42.680;23.364;2022-12-29T01:55:52;96051.66;;;5.62;86.05
5691;BME280;2870;42.680;23.364;2022-12-29T01:58:22;96051.84;;;5.30;87.28
5691;BME280;2870;42.680;23.364;2022-12-29T02:00:51;96045.56;;;5.47;86.87
5691;BME280;2870;42.680;23.364;2022-12-29T02:03:19;96047.81;;;5.37;86.98
5691;BME280;2870;42.680;23.364;2022-12-29T02:05:50;96034.94;;;5.40;86.63
5691;BME280;2870;42.680;23.364;2022-12-29T02:08:22;96034.97;;;5.62;86.44
5691;BME280;2870;42.680;23.364;2022-12-29T02:10:51;96035.97;;;5.65;86.58
5691;BME280;2870;42.680;23.364;2022-12-29T02:13:18;96042.03;;;5.52;87.07
5691;BME280;2870;42.680;23.364;2022-12-29T02:15:54;96039.25;;;5.57;86.78
5691;BME280;2870;42.680;23.364;2022-12-29T02:18:32;96040.72;;;5.30;87.53
5691;BME280;2870;42.680;23.364;2022-12-29T02:24:37;96038.19;;;5.27;87.39
5691;BME280;2870;42.680;23.364;2022-12-29T02:30:45;96029.88;;;5.61;86.11
5691;BME280;2870;42.680;23.364;2022-12-29T02:33:29;96036.47;;;5.52;86.40
5691;BME280;2870;42.680;23.364;2022-12-29T02:36:07;96028.63;;;5.73;85.47
5691;BME280;2870;42.680;23.364;2022-12-29T02:38:48;96038.97;;;5.55;86.00
5691;BME280;2870;42.680;23.364;2022-12-29T02:41:21;96037.97;;;5.53;86.06
5691;BME280;2870;42.680;23.364;2022-12-29T02:43:54;96030.41;;;5.59;85.73
5691;BME280;2870;42.680;23.364;2022-12-29T02:46:28;96030.38;;;5.48;85.62
5691;BME280;2870;42.680;23.364;2022-12-29T02:49:06;96031.66;;;5.41;86.40
5691;BME280;2870;42.680;23.364;2022-12-29T02:51:42;96033.69;;;5.52;86.34
5691;BME280;2870;42.680;23.364;2022-12-29T02:54:10;96029.13;;;5.54;86.22
5691;BME280;2870;42.680;23.364;2022-12-29T02:56:54;96024.06;;;5.53;86.65
5691;BME280;2870;42.680;23.364;2022-12-29T02:59:22;96024.81;;;5.48;86.45
5691;BME280;2870;42.680;23.364;2022-12-29T03:05:05;96018.00;;;5.66;85.94
5691;BME280;2870;42.680;23.364;2022-12-29T03:07:43;96015.25;;;5.94;85.05
5691;BME280;2870;42.680;23.364;2022-12-29T03:10:22;96018.75;;;5.55;85.60
5691;BME280;2870;42.680;23.364;2022-12-29T03:12:56;96020.00;;;5.54;86.21
5691;BME280;2870;42.680;23.364;2022-12-29T03:15:50;96020.00;;;5.48;86.79
5691;BME280;2870;42.680;23.364;2022-12-29T03:18:45;96021.53;;;5.83;85.83
5691;BME280;2870;42.680;23.364;2022-12-29T03:21:16;96012.94;;;5.70;85.64
5691;BME280;2870;42.680;23.364;2022-12-29T03:23:46;96012.44;;;5.66;85.92
5691;BME280;2870;42.680;23.364;2022-12-29T03:26:16;96013.19;;;5.66;85.56
5691;BME280;2870;42.680;23.364;2022-12-29T03:28:47;96010.41;;;5.66;85.80
5691;BME280;2870;42.680;23.364;2022-12-29T03:31:18;96011.94;;;5.45;86.84
5691;BME280;2870;42.680;23.364;2022-12-29T03:33:47;96012.44;;;5.77;85.10
5691;BME280;2870;42.680;23.364;2022-12-29T03:36:19;96023.56;;;5.77;84.77
5691;BME280;2870;42.680;23.364;2022-12-29T03:38:55;96012.44;;;5.60;85.16
5691;BME280;2870;42.680;23.364;2022-12-29T03:41:28;96021.28;;;5.53;85.47
5691;BME280;2870;42.680;23.364;2022-12-29T03:43:56;96023.72;;;5.00;86.98
5691;BME280;2870;42.680;23.364;2022-12-29T03:46:23;96019.44;;;5.11;86.97
5691;BME280;2870;42.680;23.364;2022-12-29T03:48:51;96022.44;;;5.01;87.26
5691;BME280;2870;42.680;23.364;2022-12-29T03:51:18;96029.47;;;4.86;88.54
5691;BME280;2870;42.680;23.364;2022-12-29T03:53:44;96034.81;;;4.95;88.55
5691;BME280;2870;42.680;23.364;2022-12-29T03:56:11;96035.81;;;4.92;88.25
5691;BME280;2870;42.680;23.364;2022-12-29T03:58:38;96033.03;;;4.92;88.06
5691;BME280;2870;42.680;23.364;2022-12-29T04:01:05;96039.06;;;4.85;88.55
5691;BME280;2870;42.680;23.364;2022-12-29T04:03:31;96038.59;;;4.92;88.47
5691;BME280;2870;42.680;23.364;2022-12-29T04:06:00;96041.34;;;4.86;88.73
5691;BME280;2870;42.680;23.364;2022-12-29T04:08:26;96047.09;;;4.66;89.82
5691;BME280;2870;42.680;23.364;2022-12-29T04:10:53;96041.22;;;4.58;90.37
5691;BME280;2870;42.680;23.364;2022-12-29T04:13:20;96037.75;;;4.74;89.42
5691;BME280;2870;42.680;23.364;2022-12-29T04:15:47;96035.50;;;4.73;89.49
5691;BME280;2870;42.680;23.364;2022-12-29T04:18:13;96042.28;;;4.66;89.46
5691;BME280;2870;42.680;23.364;2022-12-29T04:20:41;96032.19;;;4.69;89.57
5691;BME280;2870;42.680;23.364;2022-12-29T04:23:29;96035.72;;;4.69;90.03
5691;BME280;2870;42.680;23.364;2022-12-29T04:25:57;96038.03;;;4.71;89.83
5691;BME280;2870;42.680;23.364;2022-12-29T04:28:23;96037.19;;;4.59;90.34
5691;BME280;2870;42.680;23.364;2022-12-29T04:30:50;96036.47;;;4.70;90.15
5691;BME280;2870;42.680;23.364;2022-12-29T04:33:17;96042.34;;;4.77;89.98
5691;BME280;2870;42.680;23.364;2022-12-29T04:35:44;96049.25;;;5.04;88.78
5691;BME280;2870;42.680;23.364;2022-12-29T04:38:11;96045.41;;;4.91;88.82
5691;BME280;2870;42.680;23.364;2022-12-29T04:40:40;96048.16;;;4.85;89.30
5691;BME280;2870;42.680;23.364;2022-12-29T04:43:07;96052.75;;;4.94;88.89
5691;BME280;2870;42.680;23.364;2022-12-29T04:45:34;96057.00;;;4.84;88.73
5691;BME280;2870;42.680;23.364;2022-12-29T04:48:01;96051.97;;;4.88;88.07
5691;BME280;2870;42.680;23.364;2022-12-29T04:50:28;96069.53;;;4.62;89.17
5691;BME280;2870;42.680;23.364;2022-12-29T04:52:55;96065.03;;;4.70;89.23
5691;BME280;2870;42.680;23.364;2022-12-29T04:55:22;96072.19;;;4.83;88.46
5691;BME280;2870;42.680;23.364;2022-12-29T04:57:50;96057.69;;;4.67;88.75
5691;BME280;2870;42.680;23.364;2022-12-29T05:00:17;96066.91;;;4.96;87.84
5691;BME280;2870;42.680;23.364;2022-12-29T05:02:43;96064.66;;;5.00;87.35
5691;BME280;2870;42.680;23.364;2022-12-29T05:05:10;96066.38;;;4.86;87.83
5691;BME280;2870;42.680;23.364;2022-12-29T05:07:37;96063.13;;;4.99;87.68
5691;BME280;2870;42.680;23.364;2022-12-29T05:10:05;96066.94;;;5.01;87.24
5691;BME280;2870;42.680;23.364;2022-12-29T05:12:33;96074.44;;;4.78;88.62
5691;BME280;2870;42.680;23.364;2022-12-29T05:15:02;96068.63;;;4.82;88.24
5691;BME280;2870;42.680;23.364;2022-12-29T05:17:29;96062.66;;;5.06;87.28
5691;BME280;2870;42.680;23.364;2022-12-29T05:19:55;96064.13;;;4.96;87.88
5691;BME280;2870;42.680;23.364;2022-12-29T05:22:22;96060.88;;;5.03;87.61
5691;BME280;2870;42.680;23.364;2022-12-29T05:24:49;96065.84;;;4.82;88.39
5691;BME280;2870;42.680;23.364;2022-12-29T05:27:16;96072.13;;;4.71;89.34
5691;BME280;2870;42.680;23.364;2022-12-29T05:29:43;96065.88;;;4.93;88.53
5691;BME280;2870;42.680;23.364;2022-12-29T05:32:11;96065.63;;;4.91;88.20
5691;BME280;2870;42.680;23.364;2022-12-29T05:34:38;96066.88;;;4.85;88.70
5691;BME280;2870;42.680;23.364;2022-12-29T05:37:04;96064.19;;;5.13;88.49
5691;BME280;2870;42.680;23.364;2022-12-29T05:39:31;96066.19;;;5.01;88.01
5691;BME280;2870;42.680;23.364;2022-12-29T05:41:58;96078.56;;;4.94;88.03
5691;BME280;2870;42.680;23.364;2022-12-29T05:44:24;96069.72;;;5.01;88.21
5691;BME280;2870;42.680;23.364;2022-12-29T05:46:51;96070.00;;;5.09;88.17
5691;BME280;2870;42.680;23.364;2022-12-29T05:49:19;96066.97;;;5.07;87.77
5691;BME280;2870;42.680;23.364;2022-12-29T05:51:46;96068.75;;;5.21;88.63
5691;BME280;2870;42.680;23.364;2022-12-29T05:54:13;96071.56;;;5.32;87.84
5691;BME280;2870;42.680;23.364;2022-12-29T05:56:40;96078.94;;;5.36;87.88
5691;BME280;2870;42.680;23.364;2022-12-29T05:59:07;96081.16;;;5.20;87.93
5691;BME280;2870;42.680;23.364;2022-12-29T06:01:33;96083.69;;;5.18;88.09
5691;BME280;2870;42.680;23.364;2022-12-29T06:04:00;96092.56;;;5.22;88.16
5691;BME280;2870;42.680;23.364;2022-12-29T06:06:28;96083.72;;;5.29;87.85
5691;BME280;2870;42.680;23.364;2022-12-29T06:08:55;96093.59;;;5.36;88.05
5691;BME280;2870;42.680;23.364;2022-12-29T06:11:22;96090.06;;;5.41;87.60
5691;BME280;2870;42.680;23.364;2022-12-29T06:13:49;96099.94;;;5.37;87.35
5691;BME280;2870;42.680;23.364;2022-12-29T06:16:16;96097.66;;;5.41;87.72
5691;BME280;2870;42.680;23.364;2022-12-29T06:18:42;96092.84;;;5.36;87.66
5691;BME280;2870;42.680;23.364;2022-12-29T06:21:09;96092.81;;;5.30;88.05
5691;BME280;2870;42.680;23.364;2022-12-29T06:23:37;96096.38;;;5.36;87.77
5691;BME280;2870;42.680;23.364;2022-12-29T06:26:04;96092.59;;;5.34;87.59
5691;BME280;2870;42.680;23.364;2022-12-29T06:28:31;96095.59;;;5.24;88.25
5691;BME280;2870;42.680;23.364;2022-12-29T06:30:58;96095.09;;;5.31;88.04
5691;BME280;2870;42.680;23.364;2022-12-29T06:33:24;96088.53;;;5.35;88.29
5691;BME280;2870;42.680;23.364;2022-12-29T06:35:51;96100.72;;;5.48;88.11
5691;BME280;2870;42.680;23.364;2022-12-29T06:38:18;96098.22;;;5.56;87.94
5691;BME280;2870;42.680;23.364;2022-12-29T06:40:46;96102.53;;;5.63;87.91
5691;BME280;2870;42.680;23.364;2022-12-29T06:43:13;96098.75;;;5.77;87.09
5691;BME280;2870;42.680;23.364;2022-12-29T06:45:40;96108.13;;;5.85;87.38
5691;BME280;2870;42.680;23.364;2022-12-29T06:48:07;96104.59;;;5.84;87.71
5691;BME280;2870;42.680;23.364;2022-12-29T06:50:34;96112.72;;;6.05;87.57
5691;BME280;2870;42.680;23.364;2022-12-29T06:53:01;96107.66;;;6.03;86.99
5691;BME280;2870;42.680;23.364;2022-12-29T06:55:27;96109.19;;;6.16;86.47
5691;BME280;2870;42.680;23.364;2022-12-29T06:57:56;96110.19;;;6.18;86.07
5691;BME280;2870;42.680;23.364;2022-12-29T07:00:24;96098.28;;;6.06;84.55
5691;BME280;2870;42.680;23.364;2022-12-29T07:02:51;96113.75;;;6.02;85.73
5691;BME280;2870;42.680;23.364;2022-12-29T07:05:18;96110.69;;;6.05;86.05
5691;BME280;2870;42.680;23.364;2022-12-29T07:07:44;96117.53;;;6.10;86.00
5691;BME280;2870;42.680;23.364;2022-12-29T07:10:11;96117.28;;;6.25;85.23
5691;BME280;2870;42.680;23.364;2022-12-29T07:12:38;96110.41;;;6.71;83.96
5691;BME280;2870;42.680;23.364;2022-12-29T07:15:07;96109.34;;;6.79;82.06
5691;BME280;2870;42.680;23.364;2022-12-29T07:17:34;96098.97;;;6.69;82.39
5691;BME280;2870;42.680;23.364;2022-12-29T07:20:01;96109.34;;;6.74;82.37
5691;BME280;2870;42.680;23.364;2022-12-29T07:22:28;96110.41;;;6.65;83.11
5691;BME280;2870;42.680;23.364;2022-12-29T07:24:54;96103.72;;;6.96;81.53
5691;BME280;2870;42.680;23.364;2022-12-29T07:27:21;96101.66;;;7.08;79.79
5691;BME280;2870;42.680;23.364;2022-12-29T07:29:48;96107.00;;;7.06;81.30
5691;BME280;2870;42.680;23.364;2022-12-29T07:32:16;96110.88;;;6.69;81.24
5691;BME280;2870;42.680;23.364;2022-12-29T07:34:43;96103.91;;;7.21;80.33
5691;BME280;2870;42.680;23.364;2022-12-29T07:37:12;96104.41;;;7.13;80.97
5691;BME280;2870;42.680;23.364;2022-12-29T07:39:39;96106.44;;;7.18;79.97
5691;BME280;2870;42.680;23.364;2022-12-29T07:42:06;96119.16;;;7.03;80.33
5691;BME280;2870;42.680;23.364;2022-12-29T07:44:33;96112.50;;;7.28;80.00
5691;BME280;2870;42.680;23.364;2022-12-29T07:47:01;96114.19;;;7.42;78.83
5691;BME280;2870;42.680;23.364;2022-12-29T07:49:30;96106.53;;;7.49;78.76
5691;BME280;2870;42.680;23.364;2022-12-29T07:51:56;96122.88;;;7.33;78.41
5691;BME280;2870;42.680;23.364;2022-12-29T07:54:23;96114.84;;;7.60;78.44
5691;BME280;2870;42.680;23.364;2022-12-29T07:56:50;96121.28;;;7.90;77.30
5691;BME280;2870;42.680;23.364;2022-12-29T07:59:17;96123.66;;;7.75;77.65
5691;BME280;2870;42.680;23.364;2022-12-29T08:01:44;96110.41;;;7.81;77.98
5691;BME280;2870;42.680;23.364;2022-12-29T08:04:11;96094.88;;;7.91;76.69
5691;BME280;2870;42.680;23.364;2022-12-29T08:06:39;96121.06;;;7.36;77.78
5691;BME280;2870;42.680;23.364;2022-12-29T08:09:07;96127.31;;;7.59;77.91
5691;BME280;2870;42.680;23.364;2022-12-29T08:11:34;96112.50;;;7.75;77.28
5691;BME280;2870;42.680;23.364;2022-12-29T08:14:02;96122.88;;;7.80;77.84
5691;BME280;2870;42.680;23.364;2022-12-29T08:16:28;96127.53;;;8.08;78.00
5691;BME280;2870;42.680;23.364;2022-12-29T08:18:56;96124.06;;;8.26;76.74
5691;BME280;2870;42.680;23.364;2022-12-29T08:21:24;96115.31;;;7.69;78.25
5691;BME280;2870;42.680;23.364;2022-12-29T08:23:52;96118.06;;;7.75;78.05
5691;BME280;2870;42.680;23.364;2022-12-29T08:26:19;96111.28;;;7.65;77.48
5691;BME280;2870;42.680;23.364;2022-12-29T08:28:46;96114.44;;;7.91;77.37
5691;BME280;2870;42.680;23.364;2022-12-29T08:31:13;96118.31;;;8.48;76.04
5691;BME280;2870;42.680;23.364;2022-12-29T08:33:40;96112.41;;;8.58;75.63
5691;BME280;2870;42.680;23.364;2022-12-29T08:36:08;96124.88;;;8.21;75.59
5691;BME280;2870;42.680;23.364;2022-12-29T08:38:35;96102.69;;;7.98;76.08
5691;BME280;2870;42.680;23.364;2022-12-29T08:41:03;96112.56;;;8.00;75.88
5691;BME280;2870;42.680;23.364;2022-12-29T08:43:30;96115.47;;;8.24;75.64
5691;BME280;2870;42.680;23.364;2022-12-29T08:45:57;96107.13;;;8.18;75.94
5691;BME280;2870;42.680;23.364;2022-12-29T08:48:24;96104.94;;;8.41;75.21
5691;BME280;2870;42.680;23.364;2022-12-29T08:50:51;96115.91;;;8.64;74.90
5691;BME280;2870;42.680;23.364;2022-12-29T08:53:18;96109.28;;;8.91;73.98
5691;BME280;2870;42.680;23.364;2022-12-29T08:55:45;96106.34;;;9.02;73.07
5691;BME280;2870;42.680;23.364;2022-12-29T08:58:14;96109.97;;;9.41;71.38
5691;BME280;2870;42.680;23.364;2022-12-29T09:00:42;96103.66;;;10.29;67.92
5691;BME280;2870;42.680;23.364;2022-12-29T09:03:09;96104.00;;;10.84;66.89
5691;BME280;2870;42.680;23.364;2022-12-29T09:05:36;96104.56;;;11.83;62.67
5691;BME280;2870;42.680;23.364;2022-12-29T09:08:03;96088.56;;;11.78;62.00
5691;BME280;2870;42.680;23.364;2022-12-29T09:10:31;96093.94;;;12.23;59.74
5691;BME280;2870;42.680;23.364;2022-12-29T09:12:58;96091.44;;;12.19;60.17
5691;BME280;2870;42.680;23.364;2022-12-29T09:15:27;96093.63;;;12.76;58.59
5691;BME280;2870;42.680;23.364;2022-12-29T09:17:53;96089.59;;;13.42;56.29
5691;BME280;2870;42.680;23.364;2022-12-29T09:20:20;96093.88;;;13.07;57.37
5691;BME280;2870;42.680;23.364;2022-12-29T09:22:48;96090.00;;;12.89;57.05
5691;BME280;2870;42.680;23.364;2022-12-29T09:25:15;96092.81;;;13.46;57.97
5691;BME280;2870;42.680;23.364;2022-12-29T09:27:42;96088.81;;;13.34;56.49
5691;BME280;2870;42.680;23.364;2022-12-29T09:30:10;96092.09;;;13.53;55.94
5691;BME280;2870;42.680;23.364;2022-12-29T09:32:39;96085.88;;;13.98;56.11
5691;BME280;2870;42.680;23.364;2022-12-29T09:35:06;96087.66;;;13.73;55.22
5691;BME280;2870;42.680;23.364;2022-12-29T09:37:33;96085.25;;;13.41;55.82
5691;BME280;2870;42.680;23.364;2022-12-29T09:40:00;96086.97;;;13.44;56.42
5691;BME280;2870;42.680;23.364;2022-12-29T09:42:29;96079.94;;;14.63;53.59
5691;BME280;2870;42.680;23.364;2022-12-29T09:45:06;96083.69;;;14.43;53.31
5691;BME280;2870;42.680;23.364;2022-12-29T09:47:37;96073.75;;;13.75;54.91
5691;BME280;2870;42.680;23.364;2022-12-29T09:50:20;96079.91;;;14.25;55.61
5691;BME280;2870;42.680;23.364;2022-12-29T09:52:51;96070.59;;;13.86;56.12
5691;BME280;2870;42.680;23.364;2022-12-29T09:55:21;96065.38;;;14.05;56.07
5691;BME280;2870;42.680;23.364;2022-12-29T09:57:53;96062.75;;;14.08;55.52
5691;BME280;2870;42.680;23.364;2022-12-29T10:00:22;96062.78;;;14.30;54.49
5691;BME280;2870;42.680;23.364;2022-12-29T10:02:53;96056.72;;;14.03;54.97
5691;BME280;2870;42.680;23.364;2022-12-29T10:05:36;96056.59;;;13.58;56.18
5691;BME280;2870;42.680;23.364;2022-12-29T10:08:17;96034.59;;;13.56;56.40
5691;BME280;2870;42.680;23.364;2022-12-29T10:10:54;96053.31;;;13.97;56.60
5691;BME280;2870;42.680;23.364;2022-12-29T10:13:32;96052.25;;;14.46;54.41
5691;BME280;2870;42.680;23.364;2022-12-29T10:16:08;96045.84;;;14.38;56.44
5691;BME280;2870;42.680;23.364;2022-12-29T10:19:01;96040.16;;;14.00;55.08
5691;BME280;2870;42.680;23.364;2022-12-29T10:21:43;96040.59;;;14.42;53.90
5691;BME280;2870;42.680;23.364;2022-12-29T10:24:12;96038.53;;;14.43;55.33
5691;BME280;2870;42.680;23.364;2022-12-29T10:26:41;96041.56;;;14.52;54.30
5691;BME280;2870;42.680;23.364;2022-12-29T10:29:14;96039.06;;;14.95;52.86
5691;BME280;2870;42.680;23.364;2022-12-29T10:31:44;96043.50;;;15.44;50.79
5691;BME280;2870;42.680;23.364;2022-12-29T10:34:20;96034.47;;;15.30;51.23
5691;BME280;2870;42.680;23.364;2022-12-29T10:36:55;96025.91;;;14.21;54.90
5691;BME280;2870;42.680;23.364;2022-12-29T10:39:30;96040.19;;;14.23;55.79
5691;BME280;2870;42.680;23.364;2022-12-29T10:42:04;96024.59;;;14.68;52.85
5691;BME280;2870;42.680;23.364;2022-12-29T10:44:35;96021.56;;;14.20;55.06
5691;BME280;2870;42.680;23.364;2022-12-29T10:47:04;96020.13;;;13.60;55.21
5691;BME280;2870;42.680;23.364;2022-12-29T10:49:36;96014.53;;;13.23;56.96
5691;BME280;2870;42.680;23.364;2022-12-29T10:52:07;96016.97;;;13.71;56.90
5691;BME280;2870;42.680;23.364;2022-12-29T10:54:41;96006.66;;;13.81;56.08
5691;BME280;2870;42.680;23.364;2022-12-29T10:57:22;96014.75;;;13.85;56.26
5691;BME280;2870;42.680;23.364;2022-12-29T10:59:50;96007.13;;;14.54;54.26
5691;BME280;2870;42.680;23.364;2022-12-29T11:02:43;96004.06;;;14.21;56.11
5691;BME280;2870;42.680;23.364;2022-12-29T11:05:19;95999.41;;;13.49;57.19
5691;BME280;2870;42.680;23.364;2022-12-29T11:07:50;95988.03;;;13.70;56.20
5691;BME280;2870;42.680;23.364;2022-12-29T11:10:28;95985.25;;;13.26;57.07
5691;BME280;2870;42.680;23.364;2022-12-29T11:12:58;95981.38;;;12.72;60.28
5691;BME280;2870;42.680;23.364;2022-12-29T11:15:25;95980.97;;;12.68;59.69
5691;BME280;2870;42.680;23.364;2022-12-29T11:17:53;95981.88;;;12.35;61.71
5691;BME280;2870;42.680;23.364;2022-12-29T11:20:29;95979.09;;;11.93;61.96
5691;BME280;2870;42.680;23.364;2022-12-29T11:22:58;95967.75;;;11.64;62.53
5691;BME280;2870;42.680;23.364;2022-12-29T11:25:25;95971.31;;;11.65;62.47
5691;BME280;2870;42.680;23.364;2022-12-29T11:27:57;95969.50;;;12.09;62.32
5691;BME280;2870;42.680;23.364;2022-12-29T11:30:26;95964.22;;;11.85;63.74
5691;BME280;2870;42.680;23.364;2022-12-29T11:32:54;95960.31;;;11.88;64.22
5691;BME280;2870;42.680;23.364;2022-12-29T11:35:33;95983.47;;;12.23;62.84
5691;BME280;2870;42.680;23.364;2022-12-29T11:38:03;95958.91;;;12.23;63.24
5691;BME280;2870;42.680;23.364;2022-12-29T11:40:31;95967.84;;;12.14;62.12
5691;BME280;2870;42.680;23.364;2022-12-29T11:43:04;95957.41;;;11.80;62.74
5691;BME280;2870;42.680;23.364;2022-12-29T11:45:33;95951.72;;;11.38;63.66
5691;BME280;2870;42.680;23.364;2022-12-29T11:48:06;95952.63;;;11.33;64.85
5691;BME280;2870;42.680;23.364;2022-12-29T11:50:37;95954.34;;;11.36;64.46
5691;BME280;2870;42.680;23.364;2022-12-29T11:53:08;95949.63;;;11.86;63.51
5691;BME280;2870;42.680;23.364;2022-12-29T11:55:50;95922.78;;;11.85;62.64
5691;BME280;2870;42.680;23.364;2022-12-29T11:58:18;95953.81;;;11.93;63.08
5691;BME280;2870;42.680;23.364;2022-12-29T12:00:46;95959.06;;;11.97;63.71
5691;BME280;2870;42.680;23.364;2022-12-29T12:03:17;95949.91;;;11.62;64.13
5691;BME280;2870;42.680;23.364;2022-12-29T12:05:47;95948.28;;;11.66;64.79
5691;BME280;2870;42.680;23.364;2022-12-29T12:08:26;95932.53;;;11.63;64.95
5691;BME280;2870;42.680;23.364;2022-12-29T12:11:04;95943.28;;;11.73;64.45
5691;BME280;2870;42.680;23.364;2022-12-29T12:13:36;95939.78;;;11.80;64.09
5691;BME280;2870;42.680;23.364;2022-12-29T12:16:08;95951.13;;;12.08;63.44
5691;BME280;2870;42.680;23.364;2022-12-29T12:18:42;95938.78;;;11.90;63.84
5691;BME280;2870;42.680;23.364;2022-12-29T12:21:25;95933.34;;;11.72;64.95
5691;BME280;2870;42.680;23.364;2022-12-29T12:24:15;95933.63;;;12.02;64.67
5691;BME280;2870;42.680;23.364;2022-12-29T12:26:56;95935.22;;;11.90;65.12
5691;BME280;2870;42.680;23.364;2022-12-29T12:29:28;95927.00;;;11.37;66.78
5691;BME280;2870;42.680;23.364;2022-12-29T12:32:02;95924.13;;;11.50;66.36
5691;BME280;2870;42.680;23.364;2022-12-29T12:34:35;95927.94;;;11.94;65.91
5691;BME280;2870;42.680;23.364;2022-12-29T12:37:15;95923.88;;;11.61;65.73
5691;BME280;2870;42.680;23.364;2022-12-29T12:40:03;95914.97;;;11.71;66.04
5691;BME280;2870;42.680;23.364;2022-12-29T12:42:44;95927.28;;;11.67;66.07
5691;BME280;2870;42.680;23.364;2022-12-29T12:45:31;95917.88;;;11.99;65.77
5691;BME280;2870;42.680;23.364;2022-12-29T12:48:14;95924.00;;;12.18;64.90
5691;BME280;2870;42.680;23.364;2022-12-29T12:50:50;95924.56;;;11.96;64.93
5691;BME280;2870;42.680;23.364;2022-12-29T12:53:32;95919.03;;;12.04;64.80
5691;BME280;2870;42.680;23.364;2022-12-29T12:56:25;95920.56;;;12.12;64.83
5691;BME280;2870;42.680;23.364;2022-12-29T12:58:59;95921.28;;;12.05;65.12
5691;BME280;2870;42.680;23.364;2022-12-29T13:01:38;95917.94;;;11.86;66.08
5691;BME280;2870;42.680;23.364;2022-12-29T13:04:27;95916.25;;;11.49;67.27
5691;BME280;2870;42.680;23.364;2022-12-29T13:07:10;95911.81;;;11.53;66.86
5691;BME280;2870;42.680;23.364;2022-12-29T13:09:48;95912.25;;;11.57;66.79
5691;BME280;2870;42.680;23.364;2022-12-29T13:12:31;95922.13;;;11.92;65.95
5691;BME280;2870;42.680;23.364;2022-12-29T13:15:08;95923.06;;;11.95;65.24
5691;BME280;2870;42.680;23.364;2022-12-29T13:17:43;95916.78;;;11.81;65.06
5691;BME280;2870;42.680;23.364;2022-12-29T13:20:20;95923.81;;;11.75;66.55
5691;BME280;2870;42.680;23.364;2022-12-29T13:22:56;95929.63;;;11.77;66.64
5691;BME280;2870;42.680;23.364;2022-12-29T13:25:32;95927.69;;;11.30;67.93
5691;BME280;2870;42.680;23.364;2022-12-29T13:28:09;95929.13;;;11.23;68.26
5691;BME280;2870;42.680;23.364;2022-12-29T13:30:41;95927.06;;;11.45;67.92
5691;BME280;2870;42.680;23.364;2022-12-29T13:33:17;95929.84;;;11.79;66.50
5691;BME280;2870;42.680;23.364;2022-12-29T13:35:55;95923.97;;;11.69;66.75
5691;BME280;2870;42.680;23.364;2022-12-29T13:38:26;95924.16;;;11.71;67.10
5691;BME280;2870;42.680;23.364;2022-12-29T13:41:00;95924.31;;;11.86;65.72
5691;BME280;2870;42.680;23.364;2022-12-29T13:43:31;95931.03;;;11.83;65.75
5691;BME280;2870;42.680;23.364;2022-12-29T13:46:04;95920.25;;;11.53;66.49
5691;BME280;2870;42.680;23.364;2022-12-29T13:48:37;95919.75;;;11.41;66.60